sensor_id;sensor_type;location;lat;lon;timestamp;P1;durP1;ratioP1;P2;durP2;ratioP2
74229;SDS011;62589;12.568;99.958;2023-06-10T02:26:18;5.95;;;2.15;;
74229;SDS011;62589;12.568;99.958;2023-06-10T02:28:45;6.72;;;2.05;;
74229;SDS011;62589;12.568;99.958;2023-06-10T02:31:12;4.63;;;1.70;;
74229;SDS011;62589;12.568;99.958;2023-06-10T02:33:39;7.70;;;2.22;;
74229;SDS011;62589;12.568;99.958;2023-06-10T02:36:06;5.32;;;1.73;;
74229;SDS011;62589;12.568;99.958;2023-06-10T02:38:32;6.15;;;2.00;;
74229;SDS011;62589;12.568;99.958;2023-06-10T02:40:59;3.35;;;1.80;;
74229;SDS011;62589;12.568;99.958;2023-06-10T02:43:25;3.17;;;1.33;;
74229;SDS011;62589;12.568;99.958;2023-06-10T02:45:52;4.35;;;1.35;;
74229;SDS011;62589;12.568;99.958;2023-06-10T02:48:18;4.25;;;1.63;;
74229;SDS011;62589;12.568;99.958;2023-06-10T02:50:45;2.00;;;1.27;;
74229;SDS011;62589;12.568;99.958;2023-06-10T02:53:11;4.78;;;1.48;;
74229;SDS011;62589;12.568;99.958;2023-06-10T02:55:38;3.33;;;1.30;;
74229;SDS011;62589;12.568;99.958;2023-06-10T02:58:04;2.55;;;1.20;;
74229;SDS011;62589;12.568;99.958;2023-06-10T03:00:31;2.75;;;1.17;;
74229;SDS011;62589;12.568;99.958;2023-06-10T03:02:57;2.47;;;1.10;;
74229;SDS011;62589;12.568;99.958;2023-06-10T03:05:29;1.48;;;1.23;;
74229;SDS011;62589;12.568;99.958;2023-06-10T03:07:55;5.53;;;1.75;;
74229;SDS011;62589;12.568;99.958;2023-06-10T03:10:22;2.58;;;1.08;;
74229;SDS011;62589;12.568;99.958;2023-06-10T03:12:48;4.70;;;1.75;;
74229;SDS011;62589;12.568;99.958;2023-06-10T03:15:15;4.15;;;1.48;;
74229;SDS011;62589;12.568;99.958;2023-06-10T03:17:41;3.22;;;1.48;;
74229;SDS011;62589;12.568;99.958;2023-06-10T03:20:08;2.97;;;1.50;;
74229;SDS011;62589;12.568;99.958;2023-06-10T03:22:35;4.68;;;1.48;;
74229;SDS011;62589;12.568;99.958;2023-06-10T03:25:03;3.17;;;1.95;;
74229;SDS011;62589;12.568;99.958;2023-06-10T03:27:31;6.38;;;1.55;;
74229;SDS011;62589;12.568;99.958;2023-06-10T03:29:58;3.97;;;1.70;;
74229;SDS011;62589;12.568;99.958;2023-06-10T03:32:24;3.92;;;1.55;;
74229;SDS011;62589;12.568;99.958;2023-06-10T03:34:51;3.08;;;1.63;;
74229;SDS011;62589;12.568;99.958;2023-06-10T03:37:22;4.10;;;1.58;;
74229;SDS011;62589;12.568;99.958;2023-06-10T03:39:49;3.58;;;1.63;;
74229;SDS011;62589;12.568;99.958;2023-06-10T03:42:16;3.30;;;1.50;;
74229;SDS011;62589;12.568;99.958;2023-06-10T03:44:42;4.07;;;1.70;;
74229;SDS011;62589;12.568;99.958;2023-06-10T03:47:09;2.15;;;1.30;;
74229;SDS011;62589;12.568;99.958;2023-06-10T03:49:35;3.25;;;1.40;;
74229;SDS011;62589;12.568;99.958;2023-06-10T03:52:03;3.42;;;1.00;;
74229;SDS011;62589;12.568;99.958;2023-06-10T03:54:29;2.65;;;1.10;;
74229;SDS011;62589;12.568;99.958;2023-06-10T03:56:57;2.03;;;1.08;;
74229;SDS011;62589;12.568;99.958;2023-06-10T03:59:23;5.57;;;1.58;;
74229;SDS011;62589;12.568;99.958;2023-06-10T04:01:50;3.78;;;1.23;;
74229;SDS011;62589;12.568;99.958;2023-06-10T04:04:16;2.30;;;0.80;;
74229;SDS011;62589;12.568;99.958;2023-06-10T04:06:43;1.80;;;0.80;;
74229;SDS011;62589;12.568;99.958;2023-06-10T04:09:10;1.60;;;0.60;;
74229;SDS011;62589;12.568;99.958;2023-06-10T04:11:36;1.70;;;0.35;;
74229;SDS011;62589;12.568;99.958;2023-06-10T04:14:03;3.35;;;0.60;;
74229;SDS011;62589;12.568;99.958;2023-06-10T04:16:29;1.27;;;0.50;;
74229;SDS011;62589;12.568;99.958;2023-06-10T04:18:56;1.80;;;0.43;;
74229;SDS011;62589;12.568;99.958;2023-06-10T04:21:22;1.60;;;0.50;;
74229;SDS011;62589;12.568;99.958;2023-06-10T04:23:50;2.20;;;0.22;;
74229;SDS011;62589;12.568;99.958;2023-06-10T04:26:16;0.25;;;0.10;;
74229;SDS011;62589;12.568;99.958;2023-06-10T04:28:43;0.60;;;0.32;;
74229;SDS011;62589;12.568;99.958;2023-06-10T04:31:09;2.78;;;0.40;;
74229;SDS011;62589;12.568;99.958;2023-06-10T04:33:37;0.90;;;0.20;;
74229;SDS011;62589;12.568;99.958;2023-06-10T04:36:03;0.65;;;0.20;;
74229;SDS011;62589;12.568;99.958;2023-06-10T04:38:32;0.80;;;0.35;;
74229;SDS011;62589;12.568;99.958;2023-06-10T04:40:58;0.65;;;0.10;;
74229;SDS011;62589;12.568;99.958;2023-06-10T04:43:25;0.40;;;0.17;;
74229;SDS011;62589;12.568;99.958;2023-06-10T04:45:54;1.25;;;0.20;;
74229;SDS011;62589;12.568;99.958;2023-06-10T04:52:47;0.85;;;0.20;;
74229;SDS011;62589;12.568;99.958;2023-06-10T04:55:15;0.63;;;0.20;;
74229;SDS011;62589;12.568;99.958;2023-06-10T04:57:42;0.95;;;0.28;;
74229;SDS011;62589;12.568;99.958;2023-06-10T05:04:31;1.23;;;0.57;;
74229;SDS011;62589;12.568;99.958;2023-06-10T05:06:57;0.90;;;0.10;;
74229;SDS011;62589;12.568;99.958;2023-06-10T05:09:24;0.57;;;0.15;;
74229;SDS011;62589;12.568;99.958;2023-06-10T05:11:51;1.02;;;0.20;;
74229;SDS011;62589;12.568;99.958;2023-06-10T05:14:19;0.85;;;0.20;;
74229;SDS011;62589;12.568;99.958;2023-06-10T05:16:46;1.95;;;0.20;;
74229;SDS011;62589;12.568;99.958;2023-06-10T05:19:14;0.30;;;0.20;;
74229;SDS011;62589;12.568;99.958;2023-06-10T05:21:41;0.35;;;0.20;;
74229;SDS011;62589;12.568;99.958;2023-06-10T05:24:08;0.82;;;0.20;;
74229;SDS011;62589;12.568;99.958;2023-06-10T05:26:35;0.65;;;0.20;;
74229;SDS011;62589;12.568;99.958;2023-06-10T05:29:07;0.60;;;0.20;;
74229;SDS011;62589;12.568;99.958;2023-06-10T05:31:37;0.35;;;0.35;;
74229;SDS011;62589;12.568;99.958;2023-06-10T05:34:03;0.55;;;0.30;;
74229;SDS011;62589;12.568;99.958;2023-06-10T05:36:30;2.05;;;0.43;;
74229;SDS011;62589;12.568;99.958;2023-06-10T05:38:56;0.77;;;0.30;;
74229;SDS011;62589;12.568;99.958;2023-06-10T05:41:22;0.73;;;0.30;;
74229;SDS011;62589;12.568;99.958;2023-06-10T05:43:49;0.30;;;0.30;;
74229;SDS011;62589;12.568;99.958;2023-06-10T05:46:15;1.30;;;0.70;;
74229;SDS011;62589;12.568;99.958;2023-06-10T05:48:42;1.20;;;0.60;;
74229;SDS011;62589;12.568;99.958;2023-06-10T05:51:08;1.23;;;0.73;;
74229;SDS011;62589;12.568;99.958;2023-06-10T05:53:35;0.93;;;0.70;;
74229;SDS011;62589;12.568;99.958;2023-06-10T05:56:02;2.47;;;0.40;;
74229;SDS011;62589;12.568;99.958;2023-06-10T05:58:28;0.90;;;0.50;;
74229;SDS011;62589;12.568;99.958;2023-06-10T06:00:55;0.52;;;0.52;;
74229;SDS011;62589;12.568;99.958;2023-06-10T06:03:21;2.13;;;0.60;;
74229;SDS011;62589;12.568;99.958;2023-06-10T06:05:48;0.95;;;0.70;;
74229;SDS011;62589;12.568;99.958;2023-06-10T06:08:14;0.63;;;0.63;;
74229;SDS011;62589;12.568;99.958;2023-06-10T06:10:45;1.10;;;0.70;;
74229;SDS011;62589;12.568;99.958;2023-06-10T06:13:13;1.05;;;0.85;;
74229;SDS011;62589;12.568;99.958;2023-06-10T06:15:39;1.17;;;0.93;;
74229;SDS011;62589;12.568;99.958;2023-06-10T06:18:06;1.45;;;1.00;;
74229;SDS011;62589;12.568;99.958;2023-06-10T06:20:32;2.45;;;1.00;;
74229;SDS011;62589;12.568;99.958;2023-06-10T06:22:59;0.85;;;0.85;;
74229;SDS011;62589;12.568;99.958;2023-06-10T06:25:25;1.90;;;0.82;;
74229;SDS011;62589;12.568;99.958;2023-06-10T06:27:51;1.20;;;0.82;;
74229;SDS011;62589;12.568;99.958;2023-06-10T06:30:18;1.30;;;1.20;;
74229;SDS011;62589;12.568;99.958;2023-06-10T06:32:45;1.05;;;0.90;;
74229;SDS011;62589;12.568;99.958;2023-06-10T06:35:11;1.23;;;1.00;;
74229;SDS011;62589;12.568;99.958;2023-06-10T06:37:38;1.10;;;1.00;;
74229;SDS011;62589;12.568;99.958;2023-06-10T06:40:04;1.38;;;1.05;;
74229;SDS011;62589;12.568;99.958;2023-06-10T06:42:31;2.25;;;1.17;;
74229;SDS011;62589;12.568;99.958;2023-06-10T06:44:58;1.90;;;1.15;;
74229;SDS011;62589;12.568;99.958;2023-06-10T06:47:24;1.40;;;1.25;;
74229;SDS011;62589;12.568;99.958;2023-06-10T06:49:51;1.20;;;1.10;;
74229;SDS011;62589;12.568;99.958;2023-06-10T06:52:18;1.55;;;1.00;;
74229;SDS011;62589;12.568;99.958;2023-06-10T06:54:44;1.70;;;1.02;;
74229;SDS011;62589;12.568;99.958;2023-06-10T06:57:11;1.63;;;0.85;;
74229;SDS011;62589;12.568;99.958;2023-06-10T06:59:37;2.50;;;0.68;;
74229;SDS011;62589;12.568;99.958;2023-06-10T07:02:04;1.23;;;1.13;;
74229;SDS011;62589;12.568;99.958;2023-06-10T07:04:31;1.85;;;1.02;;
74229;SDS011;62589;12.568;99.958;2023-06-10T07:06:57;2.10;;;1.30;;
74229;SDS011;62589;12.568;99.958;2023-06-10T07:09:24;1.67;;;1.00;;
74229;SDS011;62589;12.568;99.958;2023-06-10T07:11:50;1.10;;;0.90;;
74229;SDS011;62589;12.568;99.958;2023-06-10T07:14:16;1.10;;;1.05;;
74229;SDS011;62589;12.568;99.958;2023-06-10T07:16:43;2.17;;;1.40;;
74229;SDS011;62589;12.568;99.958;2023-06-10T07:19:11;1.52;;;1.33;;
74229;SDS011;62589;12.568;99.958;2023-06-10T07:21:37;1.50;;;1.30;;
74229;SDS011;62589;12.568;99.958;2023-06-10T07:24:04;2.00;;;1.38;;
74229;SDS011;62589;12.568;99.958;2023-06-10T07:26:31;1.80;;;1.70;;
74229;SDS011;62589;12.568;99.958;2023-06-10T07:28:57;1.65;;;1.55;;
74229;SDS011;62589;12.568;99.958;2023-06-10T07:31:23;3.72;;;2.13;;
74229;SDS011;62589;12.568;99.958;2023-06-10T07:33:50;3.90;;;2.63;;
74229;SDS011;62589;12.568;99.958;2023-06-10T07:36:17;2.47;;;2.28;;
74229;SDS011;62589;12.568;99.958;2023-06-10T07:38:43;3.00;;;2.30;;
74229;SDS011;62589;12.568;99.958;2023-06-10T07:41:10;2.50;;;2.15;;
74229;SDS011;62589;12.568;99.958;2023-06-10T07:43:37;2.75;;;2.42;;
74229;SDS011;62589;12.568;99.958;2023-06-10T07:46:03;3.25;;;2.60;;
74229;SDS011;62589;12.568;99.958;2023-06-10T07:48:31;5.80;;;2.72;;
74229;SDS011;62589;12.568;99.958;2023-06-10T07:50:57;4.38;;;2.72;;
74229;SDS011;62589;12.568;99.958;2023-06-10T07:53:23;4.68;;;2.70;;
74229;SDS011;62589;12.568;99.958;2023-06-10T07:55:50;3.00;;;2.33;;
74229;SDS011;62589;12.568;99.958;2023-06-10T07:58:16;2.40;;;2.08;;
74229;SDS011;62589;12.568;99.958;2023-06-10T08:00:43;2.55;;;2.30;;
74229;SDS011;62589;12.568;99.958;2023-06-10T08:03:09;2.42;;;2.22;;
74229;SDS011;62589;12.568;99.958;2023-06-10T08:05:36;2.58;;;2.05;;
74229;SDS011;62589;12.568;99.958;2023-06-10T08:08:02;2.90;;;2.42;;
74229;SDS011;62589;12.568;99.958;2023-06-10T08:10:29;5.10;;;2.90;;
74229;SDS011;62589;12.568;99.958;2023-06-10T08:12:56;3.78;;;2.70;;
74229;SDS011;62589;12.568;99.958;2023-06-10T08:15:22;4.13;;;2.53;;
74229;SDS011;62589;12.568;99.958;2023-06-10T08:17:49;4.28;;;2.50;;
74229;SDS011;62589;12.568;99.958;2023-06-10T08:20:15;2.92;;;2.58;;
74229;SDS011;62589;12.568;99.958;2023-06-10T08:22:42;3.30;;;2.28;;
74229;SDS011;62589;12.568;99.958;2023-06-10T08:25:08;2.58;;;2.38;;
74229;SDS011;62589;12.568;99.958;2023-06-10T08:27:35;4.28;;;2.33;;
74229;SDS011;62589;12.568;99.958;2023-06-10T08:30:02;2.92;;;2.47;;
74229;SDS011;62589;12.568;99.958;2023-06-10T08:32:29;3.35;;;2.15;;
74229;SDS011;62589;12.568;99.958;2023-06-10T08:34:55;3.60;;;2.30;;
74229;SDS011;62589;12.568;99.958;2023-06-10T08:37:22;4.07;;;2.20;;
74229;SDS011;62589;12.568;99.958;2023-06-10T08:39:49;6.15;;;2.25;;
74229;SDS011;62589;12.568;99.958;2023-06-10T08:42:23;3.47;;;2.28;;
74229;SDS011;62589;12.568;99.958;2023-06-10T08:44:58;2.83;;;2.33;;
74229;SDS011;62589;12.568;99.958;2023-06-10T08:47:28;2.67;;;2.08;;
74229;SDS011;62589;12.568;99.958;2023-06-10T08:50:01;3.33;;;2.22;;
74229;SDS011;62589;12.568;99.958;2023-06-10T08:52:34;3.25;;;2.13;;
74229;SDS011;62589;12.568;99.958;2023-06-10T08:55:14;2.92;;;2.45;;
74229;SDS011;62589;12.568;99.958;2023-06-10T08:57:45;4.22;;;2.75;;
74229;SDS011;62589;12.568;99.958;2023-06-10T09:00:13;2.30;;;2.05;;
74229;SDS011;62589;12.568;99.958;2023-06-10T09:02:40;2.88;;;2.25;;
74229;SDS011;62589;12.568;99.958;2023-06-10T09:05:06;2.70;;;2.33;;
74229;SDS011;62589;12.568;99.958;2023-06-10T09:07:34;2.47;;;2.28;;
74229;SDS011;62589;12.568;99.958;2023-06-10T09:10:02;2.60;;;2.13;;
74229;SDS011;62589;12.568;99.958;2023-06-10T09:12:33;2.20;;;2.03;;
74229;SDS011;62589;12.568;99.958;2023-06-10T09:15:01;2.22;;;2.03;;
74229;SDS011;62589;12.568;99.958;2023-06-10T09:17:28;2.28;;;2.08;;
74229;SDS011;62589;12.568;99.958;2023-06-10T09:19:54;3.17;;;2.08;;
74229;SDS011;62589;12.568;99.958;2023-06-10T09:22:22;3.20;;;1.98;;
74229;SDS011;62589;12.568;99.958;2023-06-10T09:24:51;2.03;;;1.80;;
74229;SDS011;62589;12.568;99.958;2023-06-10T09:30:28;4.43;;;2.45;;
74229;SDS011;62589;12.568;99.958;2023-06-10T09:32:57;2.72;;;2.28;;
74229;SDS011;62589;12.568;99.958;2023-06-10T09:35:25;3.00;;;1.88;;
74229;SDS011;62589;12.568;99.958;2023-06-10T09:37:54;2.70;;;1.98;;
74229;SDS011;62589;12.568;99.958;2023-06-10T09:40:21;4.78;;;1.70;;
74229;SDS011;62589;12.568;99.958;2023-06-10T09:42:58;3.40;;;1.83;;
74229;SDS011;62589;12.568;99.958;2023-06-10T09:45:32;2.50;;;2.20;;
74229;SDS011;62589;12.568;99.958;2023-06-10T09:47:58;2.45;;;1.90;;
74229;SDS011;62589;12.568;99.958;2023-06-10T09:50:26;3.08;;;2.00;;
74229;SDS011;62589;12.568;99.958;2023-06-10T09:52:52;2.17;;;1.98;;
74229;SDS011;62589;12.568;99.958;2023-06-10T09:55:19;4.40;;;2.00;;
74229;SDS011;62589;12.568;99.958;2023-06-10T09:57:46;3.08;;;2.42;;
74229;SDS011;62589;12.568;99.958;2023-06-10T10:00:15;2.65;;;2.25;;
74229;SDS011;62589;12.568;99.958;2023-06-10T10:02:52;3.15;;;2.13;;
74229;SDS011;62589;12.568;99.958;2023-06-10T10:05:19;3.67;;;2.15;;
74229;SDS011;62589;12.568;99.958;2023-06-10T10:07:47;2.65;;;1.80;;
74229;SDS011;62589;12.568;99.958;2023-06-10T10:10:14;2.40;;;2.08;;
74229;SDS011;62589;12.568;99.958;2023-06-10T10:12:48;2.72;;;2.42;;
74229;SDS011;62589;12.568;99.958;2023-06-10T10:15:21;4.05;;;2.50;;
74229;SDS011;62589;12.568;99.958;2023-06-10T10:17:53;4.75;;;2.40;;
74229;SDS011;62589;12.568;99.958;2023-06-10T10:20:27;5.45;;;3.15;;
74229;SDS011;62589;12.568;99.958;2023-06-10T10:22:56;3.60;;;2.47;;
74229;SDS011;62589;12.568;99.958;2023-06-10T10:25:24;4.70;;;2.95;;
74229;SDS011;62589;12.568;99.958;2023-06-10T10:27:57;4.40;;;2.92;;
74229;SDS011;62589;12.568;99.958;2023-06-10T10:30:33;4.22;;;3.05;;
74229;SDS011;62589;12.568;99.958;2023-06-10T10:33:05;5.47;;;3.50;;
74229;SDS011;62589;12.568;99.958;2023-06-10T10:35:38;6.43;;;3.00;;
74229;SDS011;62589;12.568;99.958;2023-06-10T10:38:05;4.70;;;2.67;;
74229;SDS011;62589;12.568;99.958;2023-06-10T10:40:33;3.88;;;2.60;;
74229;SDS011;62589;12.568;99.958;2023-06-10T10:43:00;4.15;;;2.90;;
74229;SDS011;62589;12.568;99.958;2023-06-10T10:45:27;6.10;;;2.60;;
74229;SDS011;62589;12.568;99.958;2023-06-10T10:47:55;5.07;;;2.42;;
74229;SDS011;62589;12.568;99.958;2023-06-10T10:50:22;3.80;;;2.78;;
74229;SDS011;62589;12.568;99.958;2023-06-10T10:52:56;2.53;;;2.28;;
74229;SDS011;62589;12.568;99.958;2023-06-10T10:55:26;4.50;;;2.65;;
74229;SDS011;62589;12.568;99.958;2023-06-10T10:57:57;4.65;;;3.10;;
74229;SDS011;62589;12.568;99.958;2023-06-10T11:00:38;4.45;;;2.85;;
74229;SDS011;62589;12.568;99.958;2023-06-10T11:03:16;5.43;;;3.28;;
74229;SDS011;62589;12.568;99.958;2023-06-10T11:05:44;8.70;;;3.38;;
74229;SDS011;62589;12.568;99.958;2023-06-10T11:08:15;5.70;;;3.03;;
74229;SDS011;62589;12.568;99.958;2023-06-10T11:11:16;4.93;;;3.50;;
74229;SDS011;62589;12.568;99.958;2023-06-10T11:16:42;3.70;;;3.00;;
74229;SDS011;62589;12.568;99.958;2023-06-10T11:19:09;5.72;;;3.10;;
74229;SDS011;62589;12.568;99.958;2023-06-10T11:22:00;2.80;;;2.33;;
74229;SDS011;62589;12.568;99.958;2023-06-10T11:24:29;6.57;;;2.83;;
74229;SDS011;62589;12.568;99.958;2023-06-10T11:27:14;4.93;;;2.58;;
74229;SDS011;62589;12.568;99.958;2023-06-10T11:32:42;10.13;;;3.65;;
74229;SDS011;62589;12.568;99.958;2023-06-10T11:35:09;5.88;;;2.60;;
74229;SDS011;62589;12.568;99.958;2023-06-10T11:37:35;5.90;;;2.45;;
74229;SDS011;62589;12.568;99.958;2023-06-10T11:40:02;5.70;;;2.88;;
74229;SDS011;62589;12.568;99.958;2023-06-10T11:42:29;4.70;;;2.53;;
74229;SDS011;62589;12.568;99.958;2023-06-10T11:44:56;7.47;;;3.28;;
74229;SDS011;62589;12.568;99.958;2023-06-10T11:47:22;4.53;;;2.90;;
74229;SDS011;62589;12.568;99.958;2023-06-10T11:49:55;10.73;;;3.13;;
74229;SDS011;62589;12.568;99.958;2023-06-10T11:52:29;9.32;;;3.38;;
74229;SDS011;62589;12.568;99.958;2023-06-10T11:55:03;7.50;;;3.67;;
74229;SDS011;62589;12.568;99.958;2023-06-10T11:57:33;7.00;;;3.10;;
74229;SDS011;62589;12.568;99.958;2023-06-10T12:00:04;5.90;;;2.95;;
74229;SDS011;62589;12.568;99.958;2023-06-10T12:02:32;7.32;;;2.30;;
74229;SDS011;62589;12.568;99.958;2023-06-10T12:07:38;6.65;;;2.55;;
74229;SDS011;62589;12.568;99.958;2023-06-10T12:10:04;8.93;;;3.20;;
74229;SDS011;62589;12.568;99.958;2023-06-10T12:12:34;8.50;;;2.55;;
74229;SDS011;62589;12.568;99.958;2023-06-10T12:15:02;7.47;;;2.90;;
74229;SDS011;62589;12.568;99.958;2023-06-10T12:17:37;7.80;;;2.90;;
74229;SDS011;62589;12.568;99.958;2023-06-10T12:20:05;5.63;;;2.28;;
74229;SDS011;62589;12.568;99.958;2023-06-10T12:22:37;4.03;;;2.58;;
74229;SDS011;62589;12.568;99.958;2023-06-10T12:25:10;3.60;;;2.42;;
74229;SDS011;62589;12.568;99.958;2023-06-10T12:27:38;5.70;;;2.60;;
74229;SDS011;62589;12.568;99.958;2023-06-10T12:30:06;4.32;;;2.33;;
74229;SDS011;62589;12.568;99.958;2023-06-10T12:32:37;4.45;;;2.58;;
74229;SDS011;62589;12.568;99.958;2023-06-10T12:35:17;3.78;;;2.25;;
74229;SDS011;62589;12.568;99.958;2023-06-10T12:40:28;5.03;;;2.33;;
74229;SDS011;62589;12.568;99.958;2023-06-10T12:42:57;3.95;;;2.35;;
74229;SDS011;62589;12.568;99.958;2023-06-10T12:45:31;3.42;;;2.17;;
74229;SDS011;62589;12.568;99.958;2023-06-10T12:48:09;6.28;;;2.03;;
74229;SDS011;62589;12.568;99.958;2023-06-10T12:50:52;4.18;;;2.13;;
74229;SDS011;62589;12.568;99.958;2023-06-10T12:53:20;6.35;;;2.45;;
74229;SDS011;62589;12.568;99.958;2023-06-10T12:55:54;4.40;;;2.30;;
74229;SDS011;62589;12.568;99.958;2023-06-10T12:58:20;5.38;;;2.42;;
74229;SDS011;62589;12.568;99.958;2023-06-10T13:00:48;3.65;;;2.05;;
74229;SDS011;62589;12.568;99.958;2023-06-10T13:03:18;4.90;;;2.05;;
74229;SDS011;62589;12.568;99.958;2023-06-10T13:05:44;8.27;;;2.17;;
74229;SDS011;62589;12.568;99.958;2023-06-10T13:08:10;4.85;;;2.00;;
74229;SDS011;62589;12.568;99.958;2023-06-10T13:10:37;4.38;;;2.17;;
74229;SDS011;62589;12.568;99.958;2023-06-10T13:13:04;5.93;;;2.00;;
74229;SDS011;62589;12.568;99.958;2023-06-10T13:15:32;3.63;;;2.17;;
74229;SDS011;62589;12.568;99.958;2023-06-10T13:18:05;5.68;;;2.35;;
74229;SDS011;62589;12.568;99.958;2023-06-10T13:20:31;4.70;;;1.92;;
74229;SDS011;62589;12.568;99.958;2023-06-10T13:22:58;4.43;;;2.00;;
74229;SDS011;62589;12.568;99.958;2023-06-10T13:25:24;4.25;;;1.95;;
74229;SDS011;62589;12.568;99.958;2023-06-10T13:27:51;7.75;;;2.05;;
74229;SDS011;62589;12.568;99.958;2023-06-10T13:30:17;3.70;;;1.85;;
74229;SDS011;62589;12.568;99.958;2023-06-10T13:32:44;4.90;;;1.92;;
74229;SDS011;62589;12.568;99.958;2023-06-10T13:35:10;7.20;;;2.13;;
74229;SDS011;62589;12.568;99.958;2023-06-10T13:37:37;4.65;;;2.00;;
74229;SDS011;62589;12.568;99.958;2023-06-10T13:40:03;3.40;;;2.25;;
74229;SDS011;62589;12.568;99.958;2023-06-10T13:42:30;4.72;;;2.00;;
74229;SDS011;62589;12.568;99.958;2023-06-10T13:44:57;4.45;;;2.05;;
74229;SDS011;62589;12.568;99.958;2023-06-10T13:47:23;5.78;;;1.75;;
74229;SDS011;62589;12.568;99.958;2023-06-10T13:49:50;5.82;;;2.47;;
74229;SDS011;62589;12.568;99.958;2023-06-10T13:52:17;3.92;;;2.15;;
74229;SDS011;62589;12.568;99.958;2023-06-10T13:54:43;3.30;;;1.80;;
74229;SDS011;62589;12.568;99.958;2023-06-10T13:57:10;6.40;;;2.72;;
74229;SDS011;62589;12.568;99.958;2023-06-10T13:59:36;4.95;;;2.05;;
74229;SDS011;62589;12.568;99.958;2023-06-10T14:02:03;5.28;;;2.33;;
74229;SDS011;62589;12.568;99.958;2023-06-10T14:04:30;2.72;;;2.30;;
74229;SDS011;62589;12.568;99.958;2023-06-10T14:06:58;6.13;;;2.67;;
74229;SDS011;62589;12.568;99.958;2023-06-10T14:09:24;3.75;;;2.40;;
74229;SDS011;62589;12.568;99.958;2023-06-10T14:11:50;5.70;;;2.60;;
74229;SDS011;62589;12.568;99.958;2023-06-10T14:14:17;6.03;;;2.95;;
74229;SDS011;62589;12.568;99.958;2023-06-10T14:16:44;7.40;;;3.55;;
74229;SDS011;62589;12.568;99.958;2023-06-10T14:19:11;9.27;;;3.97;;
74229;SDS011;62589;12.568;99.958;2023-06-10T14:21:37;10.35;;;4.25;;
74229;SDS011;62589;12.568;99.958;2023-06-10T14:24:03;6.60;;;4.20;;
74229;SDS011;62589;12.568;99.958;2023-06-10T14:26:30;8.18;;;3.95;;
74229;SDS011;62589;12.568;99.958;2023-06-10T14:28:58;9.90;;;3.85;;
74229;SDS011;62589;12.568;99.958;2023-06-10T14:31:24;7.50;;;3.58;;
74229;SDS011;62589;12.568;99.958;2023-06-10T14:33:51;7.38;;;3.65;;
74229;SDS011;62589;12.568;99.958;2023-06-10T14:36:17;6.70;;;3.53;;
74229;SDS011;62589;12.568;99.958;2023-06-10T14:38:44;6.00;;;3.10;;
74229;SDS011;62589;12.568;99.958;2023-06-10T14:41:11;7.32;;;3.45;;
74229;SDS011;62589;12.568;99.958;2023-06-10T14:43:38;4.93;;;2.92;;
74229;SDS011;62589;12.568;99.958;2023-06-10T14:46:04;4.18;;;3.00;;
74229;SDS011;62589;12.568;99.958;2023-06-10T14:48:31;6.85;;;2.83;;
74229;SDS011;62589;12.568;99.958;2023-06-10T14:50:57;4.20;;;2.65;;
74229;SDS011;62589;12.568;99.958;2023-06-10T14:53:24;7.25;;;2.78;;
74229;SDS011;62589;12.568;99.958;2023-06-10T14:55:50;3.90;;;2.58;;
74229;SDS011;62589;12.568;99.958;2023-06-10T14:58:17;5.40;;;2.70;;
74229;SDS011;62589;12.568;99.958;2023-06-10T15:00:43;5.30;;;2.38;;
74229;SDS011;62589;12.568;99.958;2023-06-10T15:03:10;4.30;;;2.72;;
74229;SDS011;62589;12.568;99.958;2023-06-10T15:05:36;4.43;;;2.13;;
74229;SDS011;62589;12.568;99.958;2023-06-10T15:08:04;5.38;;;2.42;;
74229;SDS011;62589;12.568;99.958;2023-06-10T15:10:30;3.40;;;1.90;;
74229;SDS011;62589;12.568;99.958;2023-06-10T15:12:57;3.83;;;1.90;;
74229;SDS011;62589;12.568;99.958;2023-06-10T15:15:24;6.28;;;2.10;;
74229;SDS011;62589;12.568;99.958;2023-06-10T15:17:51;6.82;;;2.00;;
74229;SDS011;62589;12.568;99.958;2023-06-10T15:20:18;4.13;;;2.05;;
74229;SDS011;62589;12.568;99.958;2023-06-10T15:22:45;3.97;;;1.98;;
74229;SDS011;62589;12.568;99.958;2023-06-10T15:25:11;5.13;;;1.77;;
74229;SDS011;62589;12.568;99.958;2023-06-10T15:27:38;3.97;;;1.88;;
74229;SDS011;62589;12.568;99.958;2023-06-10T15:30:04;4.68;;;2.03;;
74229;SDS011;62589;12.568;99.958;2023-06-10T15:32:31;6.28;;;2.00;;
74229;SDS011;62589;12.568;99.958;2023-06-10T15:34:58;6.65;;;2.17;;
74229;SDS011;62589;12.568;99.958;2023-06-10T15:37:24;7.82;;;2.20;;
74229;SDS011;62589;12.568;99.958;2023-06-10T15:39:51;3.70;;;1.98;;
74229;SDS011;62589;12.568;99.958;2023-06-10T15:42:17;3.97;;;1.73;;
74229;SDS011;62589;12.568;99.958;2023-06-10T15:44:44;2.95;;;1.63;;
74229;SDS011;62589;12.568;99.958;2023-06-10T15:47:10;6.22;;;2.00;;
74229;SDS011;62589;12.568;99.958;2023-06-10T15:49:37;4.93;;;1.63;;
74229;SDS011;62589;12.568;99.958;2023-06-10T15:52:03;4.00;;;1.30;;
74229;SDS011;62589;12.568;99.958;2023-06-10T15:54:30;5.22;;;2.30;;
74229;SDS011;62589;12.568;99.958;2023-06-10T15:56:56;4.88;;;2.30;;
74229;SDS011;62589;12.568;99.958;2023-06-10T15:59:23;4.90;;;2.47;;
74229;SDS011;62589;12.568;99.958;2023-06-10T16:01:49;7.60;;;3.03;;
74229;SDS011;62589;12.568;99.958;2023-06-10T16:04:16;6.97;;;3.45;;
74229;SDS011;62589;12.568;99.958;2023-06-10T16:06:42;6.47;;;3.30;;
74229;SDS011;62589;12.568;99.958;2023-06-10T16:09:08;8.20;;;3.70;;
74229;SDS011;62589;12.568;99.958;2023-06-10T16:11:35;5.63;;;3.17;;
74229;SDS011;62589;12.568;99.958;2023-06-10T16:14:02;4.28;;;3.00;;
74229;SDS011;62589;12.568;99.958;2023-06-10T16:16:28;7.38;;;2.80;;
74229;SDS011;62589;12.568;99.958;2023-06-10T16:18:55;6.13;;;2.80;;
74229;SDS011;62589;12.568;99.958;2023-06-10T16:21:21;5.88;;;2.70;;
74229;SDS011;62589;12.568;99.958;2023-06-10T16:23:48;4.47;;;2.40;;
74229;SDS011;62589;12.568;99.958;2023-06-10T16:26:15;6.40;;;3.25;;
74229;SDS011;62589;12.568;99.958;2023-06-10T16:28:41;4.13;;;2.45;;
74229;SDS011;62589;12.568;99.958;2023-06-10T16:31:08;6.70;;;2.70;;
74229;SDS011;62589;12.568;99.958;2023-06-10T16:33:34;5.18;;;2.40;;
74229;SDS011;62589;12.568;99.958;2023-06-10T16:36:02;4.28;;;2.80;;
74229;SDS011;62589;12.568;99.958;2023-06-10T16:38:28;2.83;;;2.47;;
74229;SDS011;62589;12.568;99.958;2023-06-10T16:40:55;4.13;;;2.58;;
74229;SDS011;62589;12.568;99.958;2023-06-10T16:43:22;7.88;;;2.80;;
74229;SDS011;62589;12.568;99.958;2023-06-10T16:45:51;3.42;;;2.38;;
74229;SDS011;62589;12.568;99.958;2023-06-10T16:48:20;6.95;;;2.95;;
74229;SDS011;62589;12.568;99.958;2023-06-10T16:50:47;5.40;;;2.83;;
74229;SDS011;62589;12.568;99.958;2023-06-10T16:53:13;4.80;;;2.90;;
74229;SDS011;62589;12.568;99.958;2023-06-10T16:55:40;7.35;;;3.42;;
74229;SDS011;62589;12.568;99.958;2023-06-10T16:58:06;7.90;;;3.55;;
74229;SDS011;62589;12.568;99.958;2023-06-10T17:00:33;7.07;;;3.10;;
74229;SDS011;62589;12.568;99.958;2023-06-10T17:03:00;6.60;;;3.00;;
74229;SDS011;62589;12.568;99.958;2023-06-10T17:05:26;3.95;;;2.58;;
74229;SDS011;62589;12.568;99.958;2023-06-10T17:07:53;6.10;;;3.08;;
74229;SDS011;62589;12.568;99.958;2023-06-10T17:10:19;5.32;;;2.83;;
74229;SDS011;62589;12.568;99.958;2023-06-10T17:12:46;5.57;;;3.20;;
74229;SDS011;62589;12.568;99.958;2023-06-10T17:15:12;6.78;;;2.95;;
74229;SDS011;62589;12.568;99.958;2023-06-10T17:17:39;7.72;;;3.63;;
74229;SDS011;62589;12.568;99.958;2023-06-10T17:20:05;7.82;;;4.57;;
74229;SDS011;62589;12.568;99.958;2023-06-10T17:22:32;6.78;;;4.53;;
74229;SDS011;62589;12.568;99.958;2023-06-10T17:24:59;6.47;;;3.25;;